CheckWX is a tool to help pilots better visualize weather data.  It is not intended as a substitute for an official pre-flight weather briefing.

01:00:22 UTC

KBOK METAR
Brookings Airport
Brookings, Oregon, USA
Current

4 mins ago

KBOK 240056Z AUTO 27005KT 10SM CLR 11/07 A3022 RMK AO2 SLP251 T01110067
Observed
Mar-24 @ 00:56 UTC
Wind
  • 270° at 5 KTS
Visibility
10 SM
Flight Rules
VFR
Cloud Levels
  • Clear skies
Temperature
11°C / 52°F
Dewpoint
C / 45°F
Humidity
77%
Altimeter
30.22" Hg
Pressure
1025.1 hPa
Previous

1 hour ago

KBOK 232356Z AUTO VRB05KT 10SM FEW015 11/07 A3023 RMK AO2 SLP253 T01110072 10122 20100 58001
Observed
Mar-23 @ 23:56 UTC
Wind
  • Variable at 5 KTS
Visibility
10 SM
Flight Rules
VFR
Cloud Levels
  • Few at 1,500' AGL
Temperature
11°C / 52°F
Dewpoint
C / 45°F
Humidity
77%
Altimeter
30.23" Hg
Pressure
1025.3 hPa
Previous

2 hours ago

KBOK 232323Z AUTO VRB04KT 10SM FEW015 12/07 A3023 RMK AO2
Observed
Mar-23 @ 23:23 UTC
Wind
  • Variable at 4 KTS
Visibility
10 SM
Flight Rules
VFR
Cloud Levels
  • Few at 1,500' AGL
Temperature
12°C / 54°F
Dewpoint
C / 45°F
Humidity
72%
Altimeter
30.23" Hg
Pressure
1023.72 hPa